createdAt,value
2019-03-23T05:19:59.703Z,104.53
2019-03-23T05:22:28.223Z,107.87
2019-03-23T05:24:56.691Z,92.07
2019-03-23T05:27:25.295Z,105.70
2019-03-23T05:29:53.854Z,100.73
2019-03-23T05:32:22.319Z,107.60
2019-03-23T05:34:50.793Z,97.67
2019-03-23T05:37:19.256Z,89.37
2019-03-23T05:39:47.729Z,90.67
2019-03-23T05:42:16.193Z,88.40
2019-03-23T05:44:44.671Z,84.30
2019-03-23T05:47:13.269Z,90.80
2019-03-23T05:49:41.805Z,81.37
2019-03-23T05:52:10.354Z,83.33
2019-03-23T05:54:38.812Z,77.13
2019-03-23T05:57:07.281Z,81.50
2019-03-23T05:59:35.743Z,89.83
2019-03-23T06:02:04.279Z,99.40
2019-03-23T06:04:32.781Z,90.03
2019-03-23T06:07:01.241Z,92.73
2019-03-23T06:09:29.807Z,85.50
2019-03-23T06:11:58.323Z,75.93
2019-03-23T06:14:26.794Z,74.67
2019-03-23T06:16:55.279Z,72.73
2019-03-23T06:19:23.749Z,69.00
2019-03-23T06:21:52.287Z,62.17
2019-03-23T06:24:20.762Z,73.27
2019-03-23T06:26:49.229Z,74.13
2019-03-23T06:29:17.711Z,73.40
2019-03-23T06:31:46.169Z,62.23
2019-03-23T06:34:14.662Z,81.70
2019-03-23T06:36:43.193Z,82.80
2019-03-23T06:39:11.675Z,73.70
2019-03-23T06:41:40.125Z,83.30
2019-03-23T06:44:08.619Z,72.77
2019-03-23T06:46:37.081Z,75.60
2019-03-23T06:49:05.799Z,78.70
2019-03-23T06:51:34.278Z,71.57
2019-03-23T06:54:02.766Z,81.53
2019-03-23T06:56:31.322Z,88.37
2019-03-23T06:58:59.844Z,86.93
2019-03-23T07:01:28.529Z,83.13
2019-03-23T07:03:57.010Z,88.03
2019-03-23T07:06:25.488Z,86.33
2019-03-23T07:08:53.980Z,87.93
2019-03-23T07:11:22.462Z,94.07
2019-03-23T07:13:51.018Z,94.87
2019-03-23T07:16:19.477Z,97.13
2019-03-23T07:18:48.064Z,86.43
2019-03-23T07:21:16.569Z,94.40
2019-03-23T07:23:50.824Z,86.70
2019-03-23T07:26:19.367Z,101.87
2019-03-23T07:28:47.924Z,91.87
2019-03-23T07:31:16.466Z,91.07
2019-03-23T07:33:44.920Z,85.03
2019-03-23T07:36:13.384Z,104.30
2019-03-23T07:38:41.853Z,90.20
2019-03-23T07:41:10.333Z,110.10
2019-03-23T07:43:38.820Z,89.20
2019-03-23T07:46:07.283Z,97.20
2019-03-23T07:48:35.768Z,100.67
2019-03-23T07:51:04.308Z,95.80
2019-03-23T07:53:32.846Z,92.80
2019-03-23T07:56:01.298Z,91.77
2019-03-23T07:58:29.774Z,97.77
2019-03-23T08:00:58.342Z,92.33
2019-03-23T08:03:26.973Z,84.73
2019-03-23T08:05:55.488Z,101.43
2019-03-23T08:08:23.940Z,94.97
2019-03-23T08:10:52.428Z,82.93
2019-03-23T08:13:20.931Z,94.40
2019-03-23T08:15:49.444Z,100.97
2019-03-23T08:18:17.901Z,99.37
2019-03-23T08:20:46.421Z,97.87
2019-03-23T08:23:15.114Z,97.53
2019-03-23T08:25:43.641Z,100.00
2019-03-23T08:28:12.190Z,104.80
2019-03-23T08:30:40.650Z,101.50
2019-03-23T08:33:09.254Z,102.00
2019-03-23T08:35:37.781Z,98.07
2019-03-23T08:38:06.568Z,104.80
2019-03-23T08:40:35.899Z,90.83
2019-03-23T08:43:04.577Z,97.90
2019-03-23T08:45:33.068Z,102.57
2019-03-23T08:48:01.597Z,102.97
2019-03-23T08:50:30.147Z,109.57
2019-03-23T08:52:58.612Z,102.33
2019-03-23T08:55:27.105Z,97.83
2019-03-23T08:57:55.888Z,97.53
2019-03-23T09:00:24.407Z,99.47
2019-03-23T09:02:52.923Z,96.30
2019-03-23T09:05:21.468Z,104.40
2019-03-23T09:07:52.372Z,94.93
2019-03-23T09:10:20.190Z,97.57
2019-03-23T09:12:48.661Z,96.93
2019-03-23T09:15:17.233Z,107.20
2019-03-23T09:17:45.724Z,110.67
2019-03-23T09:20:14.389Z,108.83
2019-03-23T09:22:42.887Z,105.70
2019-03-23T09:25:11.336Z,114.53
2019-03-23T09:27:39.835Z,102.43
2019-03-23T09:30:10.945Z,114.67
2019-03-23T09:32:39.429Z,100.50
2019-03-23T09:35:08.143Z,101.20
2019-03-23T09:37:38.027Z,96.43
2019-03-23T09:40:11.114Z,104.70
2019-03-23T09:42:37.727Z,102.90
2019-03-23T09:45:07.927Z,105.23
2019-03-23T09:47:36.769Z,100.70
2019-03-23T09:50:07.850Z,104.47
2019-03-23T09:52:36.500Z,104.53
2019-03-23T09:55:06.298Z,97.73
2019-03-23T09:57:34.768Z,95.00
2019-03-23T10:00:05.063Z,96.33
2019-03-23T10:02:33.511Z,91.33
2019-03-23T10:05:02.031Z,95.17
2019-03-23T10:07:30.578Z,102.70
2019-03-23T10:09:59.228Z,77.10
2019-03-23T10:12:27.693Z,75.73
2019-03-23T10:14:56.229Z,71.53
2019-03-23T10:17:24.742Z,74.90
2019-03-23T10:19:53.339Z,76.83
2019-03-23T10:22:21.824Z,72.63
2019-03-23T10:24:50.285Z,66.00
2019-03-23T10:27:18.778Z,77.10
2019-03-23T10:29:47.456Z,66.40
2019-03-23T10:32:15.993Z,65.23
2019-03-23T10:34:44.466Z,63.43
2019-03-23T10:37:12.974Z,62.90
2019-03-23T10:39:41.444Z,65.57
2019-03-23T10:42:09.974Z,67.43
2019-03-23T10:44:38.492Z,61.00
2019-03-23T10:47:06.996Z,63.33
2019-03-23T10:49:37.077Z,61.93
2019-03-23T10:52:05.538Z,69.33
2019-03-23T10:54:34.020Z,73.13
2019-03-23T10:57:02.491Z,59.13
2019-03-23T10:59:30.972Z,68.37
2019-03-23T11:01:59.421Z,60.40
2019-03-23T11:04:27.972Z,66.27
2019-03-23T11:06:56.443Z,61.67
2019-03-23T11:09:24.936Z,64.17
2019-03-23T11:11:53.535Z,70.43
2019-03-23T11:14:22.149Z,64.27
2019-03-23T11:16:50.664Z,59.70
